This is the latest recevied weather packets stored in our database for station/object 9A7DI-13. If no packets are shown the sender has not sent any weather packets the latest 10 day(s).
| Time | Temp. | Humidity | Pressure | Rain* | Wind** | Luminosity | Snow |
|---|---|---|---|---|---|---|---|
| 1777781233 | 6.11° C | 80% | 1028.8 hPa | - | - | - | - |
| 1777780633 | 6.11° C | 79% | 1028.7 hPa | - | - | - | - |
| 1777780033 | 6.11° C | 77% | 1028.7 hPa | - | - | - | - |
| 1777779433 | 5.56° C | 79% | 1028.6 hPa | - | - | - | - |
| 1777778833 | 6.11° C | 76% | 1028.6 hPa | - | - | - | - |
| 1777778233 | 6.67° C | 78% | 1028.6 hPa | - | - | - | - |
| 1777777633 | 6.11° C | 79% | 1028.6 hPa | - | - | - | - |
| 1777777033 | 6.67° C | 75% | 1028.6 hPa | - | - | - | - |
| 1777776433 | 6.67° C | 77% | 1028.6 hPa | - | - | - | - |
| 1777775833 | 6.67° C | 78% | 1028.5 hPa | - | - | - | - |
| 1777775233 | 6.11° C | 79% | 1028.5 hPa | - | - | - | - |
| 1777774633 | 6.67° C | 79% | 1028.5 hPa | - | - | - | - |
| 1777774033 | 6.11° C | 80% | 1028.6 hPa | - | - | - | - |
| 1777773433 | 6.11° C | 79% | 1028.6 hPa | - | - | - | - |
| 1777772833 | 6.67° C | 78% | 1028.6 hPa | - | - | - | - |
| 1777772233 | 7.22° C | 77% | 1028.5 hPa | - | - | - | - |
| 1777771633 | 7.22° C | 77% | 1028.5 hPa | - | - | - | - |
| 1777771033 | 7.78° C | 75% | 1028.3 hPa | - | - | - | - |
| 1777770433 | 7.22° C | 75% | 1028.4 hPa | - | - | - | - |
| 1777769833 | 8.33° C | 72% | 1028.4 hPa | - | - | - | - |
| 1777769233 | 8.33° C | 74% | 1028.4 hPa | - | - | - | - |
| 1777768633 | 8.33° C | 72% | 1028.5 hPa | - | - | - | - |
| 1777768033 | 8.33° C | 72% | 1028.6 hPa | - | - | - | - |
| 1777767433 | 8.89° C | 70% | 1028.6 hPa | - | - | - | - |
| 1777766833 | 8.89° C | 71% | 1028.5 hPa | - | - | - | - |
* Rain since midnight (hover to see other rain measurements)
** Current wind speed in m/s (hover to see current wind gust speed)